sensor_id;sensor_type;location;lat;lon;timestamp;P1;durP1;ratioP1;P2;durP2;ratioP2
74957;SDS011;63741;42.624;26.276;2023-02-28T00:01:31;18.15;;;8.63;;
74957;SDS011;63741;42.624;26.276;2023-02-28T00:03:59;18.40;;;10.45;;
74957;SDS011;63741;42.624;26.276;2023-02-28T00:06:26;16.75;;;8.88;;
74957;SDS011;63741;42.624;26.276;2023-02-28T00:08:53;14.27;;;8.88;;
74957;SDS011;63741;42.624;26.276;2023-02-28T00:11:20;17.90;;;8.98;;
74957;SDS011;63741;42.624;26.276;2023-02-28T00:13:48;17.88;;;9.32;;
74957;SDS011;63741;42.624;26.276;2023-02-28T00:16:19;13.55;;;8.30;;
74957;SDS011;63741;42.624;26.276;2023-02-28T00:18:48;19.30;;;8.88;;
74957;SDS011;63741;42.624;26.276;2023-02-28T00:21:16;19.38;;;9.90;;
74957;SDS011;63741;42.624;26.276;2023-02-28T00:23:44;19.95;;;9.07;;
74957;SDS011;63741;42.624;26.276;2023-02-28T00:26:10;15.90;;;9.10;;
74957;SDS011;63741;42.624;26.276;2023-02-28T00:28:40;18.92;;;8.70;;
74957;SDS011;63741;42.624;26.276;2023-02-28T00:31:07;15.05;;;8.35;;
74957;SDS011;63741;42.624;26.276;2023-02-28T00:33:34;16.65;;;8.50;;
74957;SDS011;63741;42.624;26.276;2023-02-28T00:36:05;16.30;;;8.35;;
74957;SDS011;63741;42.624;26.276;2023-02-28T00:38:35;16.13;;;8.10;;
74957;SDS011;63741;42.624;26.276;2023-02-28T00:41:02;15.88;;;8.35;;
74957;SDS011;63741;42.624;26.276;2023-02-28T00:43:36;16.65;;;8.38;;
74957;SDS011;63741;42.624;26.276;2023-02-28T00:46:04;14.40;;;7.82;;
74957;SDS011;63741;42.624;26.276;2023-02-28T00:48:32;14.98;;;8.02;;
74957;SDS011;63741;42.624;26.276;2023-02-28T00:50:59;13.63;;;7.80;;
74957;SDS011;63741;42.624;26.276;2023-02-28T00:53:26;15.95;;;8.30;;
74957;SDS011;63741;42.624;26.276;2023-02-28T00:55:56;17.10;;;8.93;;
74957;SDS011;63741;42.624;26.276;2023-02-28T00:58:24;18.50;;;8.90;;
74957;SDS011;63741;42.624;26.276;2023-02-28T01:00:51;13.55;;;7.75;;
74957;SDS011;63741;42.624;26.276;2023-02-28T01:03:19;14.82;;;8.00;;
74957;SDS011;63741;42.624;26.276;2023-02-28T01:05:48;15.13;;;7.53;;
74957;SDS011;63741;42.624;26.276;2023-02-28T01:08:15;15.82;;;8.30;;
74957;SDS011;63741;42.624;26.276;2023-02-28T01:10:42;17.70;;;8.27;;
74957;SDS011;63741;42.624;26.276;2023-02-28T01:13:09;16.67;;;8.27;;
74957;SDS011;63741;42.624;26.276;2023-02-28T01:15:37;16.38;;;7.88;;
74957;SDS011;63741;42.624;26.276;2023-02-28T01:18:08;14.70;;;7.53;;
74957;SDS011;63741;42.624;26.276;2023-02-28T01:20:38;12.70;;;7.10;;
74957;SDS011;63741;42.624;26.276;2023-02-28T01:23:05;13.93;;;7.63;;
74957;SDS011;63741;42.624;26.276;2023-02-28T01:25:36;12.98;;;7.15;;
74957;SDS011;63741;42.624;26.276;2023-02-28T01:28:03;14.63;;;7.72;;
74957;SDS011;63741;42.624;26.276;2023-02-28T01:30:33;15.63;;;7.32;;
74957;SDS011;63741;42.624;26.276;2023-02-28T01:33:00;14.70;;;7.28;;
74957;SDS011;63741;42.624;26.276;2023-02-28T01:35:27;12.75;;;7.28;;
74957;SDS011;63741;42.624;26.276;2023-02-28T01:37:54;14.88;;;7.53;;
74957;SDS011;63741;42.624;26.276;2023-02-28T01:40:26;12.38;;;7.10;;
74957;SDS011;63741;42.624;26.276;2023-02-28T01:42:53;12.25;;;7.00;;
74957;SDS011;63741;42.624;26.276;2023-02-28T01:45:22;15.60;;;7.50;;
74957;SDS011;63741;42.624;26.276;2023-02-28T01:48:02;12.98;;;7.10;;
74957;SDS011;63741;42.624;26.276;2023-02-28T01:50:33;13.82;;;7.10;;
74957;SDS011;63741;42.624;26.276;2023-02-28T01:53:04;15.68;;;7.20;;
74957;SDS011;63741;42.624;26.276;2023-02-28T01:55:36;12.80;;;7.32;;
74957;SDS011;63741;42.624;26.276;2023-02-28T01:58:04;15.07;;;6.93;;
74957;SDS011;63741;42.624;26.276;2023-02-28T02:00:35;14.40;;;7.63;;
74957;SDS011;63741;42.624;26.276;2023-02-28T02:03:06;12.52;;;6.97;;
74957;SDS011;63741;42.624;26.276;2023-02-28T02:05:37;15.65;;;7.65;;
74957;SDS011;63741;42.624;26.276;2023-02-28T02:08:06;16.15;;;7.55;;
74957;SDS011;63741;42.624;26.276;2023-02-28T02:10:40;14.20;;;7.00;;
74957;SDS011;63741;42.624;26.276;2023-02-28T02:21:36;11.88;;;7.18;;
74957;SDS011;63741;42.624;26.276;2023-02-28T02:41:53;15.35;;;7.30;;
74957;SDS011;63741;42.624;26.276;2023-02-28T02:44:22;14.77;;;7.75;;
74957;SDS011;63741;42.624;26.276;2023-02-28T02:46:54;14.18;;;7.20;;
74957;SDS011;63741;42.624;26.276;2023-02-28T02:49:28;12.93;;;7.05;;
74957;SDS011;63741;42.624;26.276;2023-02-28T02:52:00;15.30;;;7.72;;
74957;SDS011;63741;42.624;26.276;2023-02-28T02:54:40;14.27;;;7.38;;
74957;SDS011;63741;42.624;26.276;2023-02-28T02:57:11;14.77;;;7.22;;
74957;SDS011;63741;42.624;26.276;2023-02-28T02:59:45;12.45;;;7.32;;
74957;SDS011;63741;42.624;26.276;2023-02-28T03:02:13;10.98;;;7.03;;
74957;SDS011;63741;42.624;26.276;2023-02-28T03:05:03;11.85;;;6.70;;
74957;SDS011;63741;42.624;26.276;2023-02-28T03:07:31;13.30;;;7.47;;
74957;SDS011;63741;42.624;26.276;2023-02-28T03:09:58;10.57;;;6.57;;
74957;SDS011;63741;42.624;26.276;2023-02-28T03:12:32;14.30;;;7.38;;
74957;SDS011;63741;42.624;26.276;2023-02-28T03:17:57;13.68;;;7.57;;
74957;SDS011;63741;42.624;26.276;2023-02-28T03:23:13;13.48;;;7.18;;
74957;SDS011;63741;42.624;26.276;2023-02-28T03:34:01;15.15;;;8.27;;
74957;SDS011;63741;42.624;26.276;2023-02-28T03:36:34;14.60;;;8.00;;
74957;SDS011;63741;42.624;26.276;2023-02-28T03:39:14;17.27;;;8.88;;
74957;SDS011;63741;42.624;26.276;2023-02-28T03:41:47;16.15;;;8.38;;
74957;SDS011;63741;42.624;26.276;2023-02-28T03:44:21;16.25;;;8.65;;
74957;SDS011;63741;42.624;26.276;2023-02-28T03:46:58;16.58;;;8.40;;
74957;SDS011;63741;42.624;26.276;2023-02-28T03:49:34;18.38;;;9.13;;
74957;SDS011;63741;42.624;26.276;2023-02-28T03:52:09;16.50;;;9.02;;
74957;SDS011;63741;42.624;26.276;2023-02-28T03:54:43;15.27;;;9.70;;
74957;SDS011;63741;42.624;26.276;2023-02-28T03:57:18;17.33;;;8.77;;
74957;SDS011;63741;42.624;26.276;2023-02-28T04:00:12;14.93;;;9.07;;
74957;SDS011;63741;42.624;26.276;2023-02-28T04:02:40;15.07;;;9.07;;
74957;SDS011;63741;42.624;26.276;2023-02-28T04:05:07;18.50;;;9.32;;
74957;SDS011;63741;42.624;26.276;2023-02-28T04:07:35;16.20;;;8.73;;
74957;SDS011;63741;42.624;26.276;2023-02-28T04:10:02;18.58;;;9.23;;
74957;SDS011;63741;42.624;26.276;2023-02-28T04:12:30;16.77;;;9.50;;
74957;SDS011;63741;42.624;26.276;2023-02-28T04:14:57;17.60;;;9.18;;
74957;SDS011;63741;42.624;26.276;2023-02-28T04:17:24;15.65;;;8.98;;
74957;SDS011;63741;42.624;26.276;2023-02-28T04:19:50;22.30;;;9.50;;
74957;SDS011;63741;42.624;26.276;2023-02-28T04:22:17;14.48;;;9.10;;
74957;SDS011;63741;42.624;26.276;2023-02-28T04:24:44;19.10;;;9.15;;
74957;SDS011;63741;42.624;26.276;2023-02-28T04:27:11;16.08;;;9.40;;
74957;SDS011;63741;42.624;26.276;2023-02-28T04:29:38;16.80;;;10.05;;
74957;SDS011;63741;42.624;26.276;2023-02-28T04:32:05;20.63;;;9.52;;
74957;SDS011;63741;42.624;26.276;2023-02-28T04:34:32;17.98;;;9.73;;
74957;SDS011;63741;42.624;26.276;2023-02-28T04:36:59;17.88;;;9.52;;
74957;SDS011;63741;42.624;26.276;2023-02-28T04:39:42;18.05;;;9.70;;
74957;SDS011;63741;42.624;26.276;2023-02-28T04:42:10;17.30;;;9.95;;
74957;SDS011;63741;42.624;26.276;2023-02-28T04:44:38;17.48;;;9.73;;
74957;SDS011;63741;42.624;26.276;2023-02-28T04:47:04;14.88;;;9.38;;
74957;SDS011;63741;42.624;26.276;2023-02-28T04:49:32;18.98;;;9.73;;
74957;SDS011;63741;42.624;26.276;2023-02-28T04:51:59;17.70;;;10.52;;
74957;SDS011;63741;42.624;26.276;2023-02-28T04:54:25;18.65;;;9.63;;
74957;SDS011;63741;42.624;26.276;2023-02-28T04:56:52;16.90;;;9.65;;
74957;SDS011;63741;42.624;26.276;2023-02-28T04:59:19;15.00;;;9.40;;
74957;SDS011;63741;42.624;26.276;2023-02-28T05:01:47;14.15;;;9.05;;
74957;SDS011;63741;42.624;26.276;2023-02-28T05:04:15;14.55;;;8.75;;
74957;SDS011;63741;42.624;26.276;2023-02-28T05:06:43;16.02;;;9.05;;
74957;SDS011;63741;42.624;26.276;2023-02-28T05:09:10;16.25;;;9.70;;
74957;SDS011;63741;42.624;26.276;2023-02-28T05:11:40;16.33;;;9.55;;
74957;SDS011;63741;42.624;26.276;2023-02-28T05:14:11;16.02;;;9.38;;
74957;SDS011;63741;42.624;26.276;2023-02-28T05:16:39;15.30;;;9.77;;
74957;SDS011;63741;42.624;26.276;2023-02-28T05:19:06;17.13;;;9.82;;
74957;SDS011;63741;42.624;26.276;2023-02-28T05:21:34;15.50;;;10.00;;
74957;SDS011;63741;42.624;26.276;2023-02-28T05:24:04;15.60;;;9.88;;
74957;SDS011;63741;42.624;26.276;2023-02-28T05:26:35;16.27;;;10.38;;
74957;SDS011;63741;42.624;26.276;2023-02-28T05:29:04;15.90;;;9.88;;
74957;SDS011;63741;42.624;26.276;2023-02-28T05:31:31;16.30;;;9.68;;
74957;SDS011;63741;42.624;26.276;2023-02-28T05:33:59;17.17;;;9.70;;
74957;SDS011;63741;42.624;26.276;2023-02-28T05:36:26;17.70;;;10.10;;
74957;SDS011;63741;42.624;26.276;2023-02-28T05:38:53;16.25;;;10.52;;
74957;SDS011;63741;42.624;26.276;2023-02-28T05:41:20;16.85;;;9.52;;
74957;SDS011;63741;42.624;26.276;2023-02-28T05:43:47;18.60;;;10.40;;
74957;SDS011;63741;42.624;26.276;2023-02-28T05:46:15;25.52;;;15.50;;
74957;SDS011;63741;42.624;26.276;2023-02-28T05:48:42;21.67;;;12.50;;
74957;SDS011;63741;42.624;26.276;2023-02-28T05:51:12;19.15;;;11.15;;
74957;SDS011;63741;42.624;26.276;2023-02-28T05:53:39;17.70;;;10.38;;
74957;SDS011;63741;42.624;26.276;2023-02-28T05:56:06;18.40;;;12.07;;
74957;SDS011;63741;42.624;26.276;2023-02-28T05:58:33;25.52;;;14.98;;
74957;SDS011;63741;42.624;26.276;2023-02-28T06:01:18;21.92;;;12.32;;
74957;SDS011;63741;42.624;26.276;2023-02-28T06:04:00;20.23;;;11.75;;
74957;SDS011;63741;42.624;26.276;2023-02-28T06:06:27;20.85;;;13.05;;
74957;SDS011;63741;42.624;26.276;2023-02-28T06:08:55;18.20;;;11.27;;
74957;SDS011;63741;42.624;26.276;2023-02-28T06:11:23;17.48;;;10.20;;
74957;SDS011;63741;42.624;26.276;2023-02-28T06:13:55;19.00;;;10.13;;
74957;SDS011;63741;42.624;26.276;2023-02-28T06:16:23;17.85;;;11.15;;
74957;SDS011;63741;42.624;26.276;2023-02-28T06:18:51;19.60;;;11.77;;
74957;SDS011;63741;42.624;26.276;2023-02-28T06:21:19;17.27;;;11.43;;
74957;SDS011;63741;42.624;26.276;2023-02-28T06:23:46;17.67;;;10.20;;
74957;SDS011;63741;42.624;26.276;2023-02-28T06:26:12;16.67;;;10.75;;
74957;SDS011;63741;42.624;26.276;2023-02-28T06:28:39;16.10;;;9.98;;
74957;SDS011;63741;42.624;26.276;2023-02-28T06:31:07;15.93;;;9.68;;
74957;SDS011;63741;42.624;26.276;2023-02-28T06:33:36;17.73;;;10.05;;
74957;SDS011;63741;42.624;26.276;2023-02-28T06:36:04;16.20;;;10.55;;
74957;SDS011;63741;42.624;26.276;2023-02-28T06:38:32;19.05;;;11.48;;
74957;SDS011;63741;42.624;26.276;2023-02-28T06:40:59;15.95;;;10.07;;
74957;SDS011;63741;42.624;26.276;2023-02-28T06:43:28;18.63;;;9.93;;
74957;SDS011;63741;42.624;26.276;2023-02-28T06:45:57;13.20;;;8.20;;
74957;SDS011;63741;42.624;26.276;2023-02-28T06:48:26;18.02;;;8.93;;
74957;SDS011;63741;42.624;26.276;2023-02-28T06:51:07;14.32;;;9.00;;
74957;SDS011;63741;42.624;26.276;2023-02-28T06:53:44;16.20;;;8.57;;
74957;SDS011;63741;42.624;26.276;2023-02-28T06:56:12;16.02;;;9.15;;
74957;SDS011;63741;42.624;26.276;2023-02-28T06:58:41;15.07;;;8.23;;
74957;SDS011;63741;42.624;26.276;2023-02-28T07:01:13;48.72;;;18.20;;
74957;SDS011;63741;42.624;26.276;2023-02-28T07:03:40;13.48;;;8.02;;
74957;SDS011;63741;42.624;26.276;2023-02-28T07:06:06;12.77;;;7.63;;
74957;SDS011;63741;42.624;26.276;2023-02-28T07:08:33;14.95;;;9.00;;
74957;SDS011;63741;42.624;26.276;2023-02-28T07:11:02;14.32;;;8.60;;
74957;SDS011;63741;42.624;26.276;2023-02-28T07:13:29;11.85;;;7.95;;
74957;SDS011;63741;42.624;26.276;2023-02-28T07:15:58;13.05;;;7.82;;
74957;SDS011;63741;42.624;26.276;2023-02-28T07:18:26;12.05;;;7.03;;
74957;SDS011;63741;42.624;26.276;2023-02-28T07:20:54;10.82;;;6.85;;
74957;SDS011;63741;42.624;26.276;2023-02-28T07:23:21;14.25;;;7.47;;
74957;SDS011;63741;42.624;26.276;2023-02-28T07:25:49;11.43;;;7.38;;
74957;SDS011;63741;42.624;26.276;2023-02-28T07:28:16;15.85;;;8.43;;
74957;SDS011;63741;42.624;26.276;2023-02-28T07:30:43;10.95;;;7.63;;
74957;SDS011;63741;42.624;26.276;2023-02-28T07:33:10;12.30;;;7.43;;
74957;SDS011;63741;42.624;26.276;2023-02-28T07:35:37;12.15;;;7.35;;
74957;SDS011;63741;42.624;26.276;2023-02-28T07:38:04;12.60;;;7.07;;
74957;SDS011;63741;42.624;26.276;2023-02-28T07:40:31;9.75;;;6.80;;
74957;SDS011;63741;42.624;26.276;2023-02-28T07:42:58;8.95;;;6.35;;
74957;SDS011;63741;42.624;26.276;2023-02-28T07:45:27;10.88;;;6.20;;
74957;SDS011;63741;42.624;26.276;2023-02-28T07:47:55;10.55;;;5.80;;
74957;SDS011;63741;42.624;26.276;2023-02-28T07:50:22;8.35;;;5.43;;
74957;SDS011;63741;42.624;26.276;2023-02-28T07:52:52;8.68;;;5.35;;
74957;SDS011;63741;42.624;26.276;2023-02-28T07:55:19;8.93;;;6.07;;
74957;SDS011;63741;42.624;26.276;2023-02-28T07:57:46;9.98;;;6.10;;
74957;SDS011;63741;42.624;26.276;2023-02-28T08:00:13;11.30;;;5.80;;
74957;SDS011;63741;42.624;26.276;2023-02-28T08:02:40;11.15;;;5.72;;
74957;SDS011;63741;42.624;26.276;2023-02-28T08:05:07;12.65;;;6.13;;
74957;SDS011;63741;42.624;26.276;2023-02-28T08:07:34;11.25;;;5.22;;
74957;SDS011;63741;42.624;26.276;2023-02-28T08:10:01;9.30;;;5.55;;
74957;SDS011;63741;42.624;26.276;2023-02-28T08:12:28;9.13;;;5.13;;
74957;SDS011;63741;42.624;26.276;2023-02-28T08:14:55;8.25;;;4.93;;
74957;SDS011;63741;42.624;26.276;2023-02-28T08:17:22;8.20;;;5.53;;
74957;SDS011;63741;42.624;26.276;2023-02-28T08:19:49;11.00;;;5.45;;
74957;SDS011;63741;42.624;26.276;2023-02-28T08:22:16;8.32;;;5.10;;
74957;SDS011;63741;42.624;26.276;2023-02-28T08:24:43;9.88;;;5.60;;
74957;SDS011;63741;42.624;26.276;2023-02-28T08:27:10;10.52;;;5.80;;
74957;SDS011;63741;42.624;26.276;2023-02-28T08:29:37;9.77;;;5.65;;
74957;SDS011;63741;42.624;26.276;2023-02-28T08:32:05;9.32;;;5.18;;
74957;SDS011;63741;42.624;26.276;2023-02-28T08:34:46;8.13;;;4.95;;
74957;SDS011;63741;42.624;26.276;2023-02-28T08:37:13;8.20;;;5.18;;
74957;SDS011;63741;42.624;26.276;2023-02-28T08:39:40;9.30;;;5.10;;
74957;SDS011;63741;42.624;26.276;2023-02-28T08:42:07;8.90;;;4.95;;
74957;SDS011;63741;42.624;26.276;2023-02-28T08:44:34;8.70;;;5.63;;
74957;SDS011;63741;42.624;26.276;2023-02-28T08:47:01;8.10;;;5.15;;
74957;SDS011;63741;42.624;26.276;2023-02-28T08:49:28;8.40;;;5.75;;
74957;SDS011;63741;42.624;26.276;2023-02-28T08:51:55;9.15;;;5.30;;
74957;SDS011;63741;42.624;26.276;2023-02-28T08:54:23;8.75;;;5.25;;
74957;SDS011;63741;42.624;26.276;2023-02-28T08:56:51;8.73;;;5.15;;
74957;SDS011;63741;42.624;26.276;2023-02-28T08:59:17;8.85;;;5.05;;
74957;SDS011;63741;42.624;26.276;2023-02-28T09:01:44;8.60;;;4.28;;
74957;SDS011;63741;42.624;26.276;2023-02-28T09:04:11;8.77;;;4.88;;
74957;SDS011;63741;42.624;26.276;2023-02-28T09:06:42;9.20;;;5.53;;
74957;SDS011;63741;42.624;26.276;2023-02-28T09:09:10;11.35;;;5.18;;
74957;SDS011;63741;42.624;26.276;2023-02-28T09:11:37;8.95;;;5.50;;
74957;SDS011;63741;42.624;26.276;2023-02-28T09:14:04;9.18;;;5.85;;
74957;SDS011;63741;42.624;26.276;2023-02-28T09:16:31;14.05;;;6.60;;
74957;SDS011;63741;42.624;26.276;2023-02-28T09:19:00;13.02;;;6.28;;
74957;SDS011;63741;42.624;26.276;2023-02-28T09:21:27;7.45;;;5.07;;
74957;SDS011;63741;42.624;26.276;2023-02-28T09:23:55;8.30;;;5.40;;
74957;SDS011;63741;42.624;26.276;2023-02-28T09:26:23;9.00;;;6.00;;
74957;SDS011;63741;42.624;26.276;2023-02-28T09:29:04;7.47;;;4.97;;
74957;SDS011;63741;42.624;26.276;2023-02-28T09:31:31;8.73;;;4.80;;
74957;SDS011;63741;42.624;26.276;2023-02-28T09:33:58;11.07;;;6.10;;
74957;SDS011;63741;42.624;26.276;2023-02-28T09:36:26;10.02;;;6.00;;
74957;SDS011;63741;42.624;26.276;2023-02-28T09:39:09;11.60;;;5.75;;
74957;SDS011;63741;42.624;26.276;2023-02-28T09:41:37;20.90;;;9.27;;
74957;SDS011;63741;42.624;26.276;2023-02-28T09:44:17;13.40;;;7.80;;
74957;SDS011;63741;42.624;26.276;2023-02-28T09:47:07;11.73;;;7.90;;
74957;SDS011;63741;42.624;26.276;2023-02-28T09:49:41;9.10;;;5.90;;
74957;SDS011;63741;42.624;26.276;2023-02-28T09:52:12;10.02;;;6.15;;
74957;SDS011;63741;42.624;26.276;2023-02-28T09:54:43;11.95;;;6.20;;
74957;SDS011;63741;42.624;26.276;2023-02-28T10:05:18;27.50;;;13.10;;
74957;SDS011;63741;42.624;26.276;2023-02-28T10:08:02;12.88;;;7.65;;
74957;SDS011;63741;42.624;26.276;2023-02-28T10:10:57;9.10;;;6.38;;
74957;SDS011;63741;42.624;26.276;2023-02-28T10:13:36;10.43;;;6.50;;
74957;SDS011;63741;42.624;26.276;2023-02-28T10:16:14;8.95;;;6.28;;
74957;SDS011;63741;42.624;26.276;2023-02-28T10:21:35;8.68;;;6.40;;
74957;SDS011;63741;42.624;26.276;2023-02-28T10:27:09;11.55;;;5.90;;
74957;SDS011;63741;42.624;26.276;2023-02-28T10:29:44;9.77;;;5.90;;
74957;SDS011;63741;42.624;26.276;2023-02-28T10:34:57;11.52;;;6.13;;
74957;SDS011;63741;42.624;26.276;2023-02-28T10:37:47;10.07;;;6.47;;
74957;SDS011;63741;42.624;26.276;2023-02-28T10:45:29;8.13;;;6.40;;
74957;SDS011;63741;42.624;26.276;2023-02-28T10:48:06;10.13;;;6.10;;
74957;SDS011;63741;42.624;26.276;2023-02-28T10:50:57;11.25;;;6.38;;
74957;SDS011;63741;42.624;26.276;2023-02-28T10:53:30;8.45;;;6.40;;
74957;SDS011;63741;42.624;26.276;2023-02-28T10:56:15;9.05;;;5.90;;
74957;SDS011;63741;42.624;26.276;2023-02-28T11:01:15;9.95;;;6.55;;
74957;SDS011;63741;42.624;26.276;2023-02-28T11:03:44;11.25;;;7.75;;
74957;SDS011;63741;42.624;26.276;2023-02-28T11:06:16;12.88;;;7.50;;
74957;SDS011;63741;42.624;26.276;2023-02-28T11:09:17;13.98;;;7.25;;
74957;SDS011;63741;42.624;26.276;2023-02-28T11:11:49;12.07;;;6.78;;
74957;SDS011;63741;42.624;26.276;2023-02-28T11:19:18;11.45;;;6.47;;
74957;SDS011;63741;42.624;26.276;2023-02-28T11:21:53;10.35;;;6.43;;
74957;SDS011;63741;42.624;26.276;2023-02-28T11:24:30;11.77;;;7.70;;
74957;SDS011;63741;42.624;26.276;2023-02-28T11:27:02;11.75;;;6.85;;
74957;SDS011;63741;42.624;26.276;2023-02-28T11:29:33;11.00;;;6.82;;
74957;SDS011;63741;42.624;26.276;2023-02-28T11:34:34;16.60;;;7.95;;
74957;SDS011;63741;42.624;26.276;2023-02-28T11:37:03;12.20;;;7.63;;
74957;SDS011;63741;42.624;26.276;2023-02-28T11:39:32;13.20;;;8.40;;
74957;SDS011;63741;42.624;26.276;2023-02-28T11:47:47;15.85;;;9.27;;
74957;SDS011;63741;42.624;26.276;2023-02-28T11:53:22;16.33;;;9.45;;
74957;SDS011;63741;42.624;26.276;2023-02-28T11:59:35;14.93;;;8.35;;
74957;SDS011;63741;42.624;26.276;2023-02-28T12:02:08;15.23;;;9.07;;
74957;SDS011;63741;42.624;26.276;2023-02-28T12:07:40;19.73;;;10.75;;
74957;SDS011;63741;42.624;26.276;2023-02-28T12:10:28;18.08;;;9.30;;
74957;SDS011;63741;42.624;26.276;2023-02-28T12:13:40;17.92;;;9.60;;
74957;SDS011;63741;42.624;26.276;2023-02-28T12:16:12;18.02;;;9.80;;
74957;SDS011;63741;42.624;26.276;2023-02-28T12:27:00;18.20;;;9.43;;
74957;SDS011;63741;42.624;26.276;2023-02-28T12:29:33;19.77;;;9.70;;
74957;SDS011;63741;42.624;26.276;2023-02-28T12:34:49;18.98;;;8.95;;
74957;SDS011;63741;42.624;26.276;2023-02-28T12:37:24;17.52;;;9.32;;
74957;SDS011;63741;42.624;26.276;2023-02-28T12:40:00;16.77;;;9.57;;
74957;SDS011;63741;42.624;26.276;2023-02-28T12:42:36;17.35;;;9.68;;
74957;SDS011;63741;42.624;26.276;2023-02-28T12:45:13;17.02;;;9.40;;
74957;SDS011;63741;42.624;26.276;2023-02-28T12:47:47;17.67;;;9.20;;
74957;SDS011;63741;42.624;26.276;2023-02-28T12:50:17;19.30;;;10.23;;
74957;SDS011;63741;42.624;26.276;2023-02-28T12:52:55;21.88;;;10.02;;
74957;SDS011;63741;42.624;26.276;2023-02-28T12:58:31;16.23;;;8.43;;
74957;SDS011;63741;42.624;26.276;2023-02-28T13:09:34;19.90;;;9.93;;
74957;SDS011;63741;42.624;26.276;2023-02-28T13:12:01;19.08;;;9.15;;
74957;SDS011;63741;42.624;26.276;2023-02-28T13:14:40;17.90;;;9.45;;
74957;SDS011;63741;42.624;26.276;2023-02-28T13:19:45;15.68;;;9.52;;
74957;SDS011;63741;42.624;26.276;2023-02-28T13:22:42;16.23;;;8.57;;
74957;SDS011;63741;42.624;26.276;2023-02-28T13:27:56;15.50;;;8.45;;
74957;SDS011;63741;42.624;26.276;2023-02-28T13:33:24;16.55;;;8.15;;
74957;SDS011;63741;42.624;26.276;2023-02-28T13:36:29;17.08;;;9.38;;
74957;SDS011;63741;42.624;26.276;2023-02-28T13:39:01;17.20;;;9.60;;
74957;SDS011;63741;42.624;26.276;2023-02-28T13:49:28;21.08;;;11.30;;
74957;SDS011;63741;42.624;26.276;2023-02-28T14:00:52;14.32;;;8.05;;
74957;SDS011;63741;42.624;26.276;2023-02-28T14:08:47;16.17;;;9.68;;
74957;SDS011;63741;42.624;26.276;2023-02-28T14:11:32;15.25;;;7.28;;
74957;SDS011;63741;42.624;26.276;2023-02-28T14:14:07;13.90;;;7.35;;
74957;SDS011;63741;42.624;26.276;2023-02-28T14:16:44;14.60;;;7.18;;
74957;SDS011;63741;42.624;26.276;2023-02-28T14:19:17;16.95;;;8.02;;
74957;SDS011;63741;42.624;26.276;2023-02-28T14:33:35;14.80;;;7.55;;
74957;SDS011;63741;42.624;26.276;2023-02-28T14:36:20;12.75;;;7.10;;
74957;SDS011;63741;42.624;26.276;2023-02-28T14:38:57;11.35;;;6.10;;
74957;SDS011;63741;42.624;26.276;2023-02-28T14:41:29;12.60;;;6.45;;
74957;SDS011;63741;42.624;26.276;2023-02-28T14:43:59;10.30;;;5.88;;
74957;SDS011;63741;42.624;26.276;2023-02-28T14:46:34;14.73;;;7.50;;
74957;SDS011;63741;42.624;26.276;2023-02-28T14:49:05;15.57;;;7.95;;
74957;SDS011;63741;42.624;26.276;2023-02-28T14:51:37;12.43;;;6.90;;
74957;SDS011;63741;42.624;26.276;2023-02-28T14:54:04;15.00;;;6.68;;
74957;SDS011;63741;42.624;26.276;2023-02-28T14:56:38;11.85;;;6.57;;
74957;SDS011;63741;42.624;26.276;2023-02-28T14:59:22;16.00;;;8.20;;
74957;SDS011;63741;42.624;26.276;2023-02-28T15:02:12;16.17;;;7.95;;
74957;SDS011;63741;42.624;26.276;2023-02-28T15:04:41;21.83;;;10.13;;
74957;SDS011;63741;42.624;26.276;2023-02-28T15:07:09;16.92;;;8.88;;
74957;SDS011;63741;42.624;26.276;2023-02-28T15:09:37;16.90;;;8.10;;
74957;SDS011;63741;42.624;26.276;2023-02-28T15:12:04;57.75;;;21.90;;
74957;SDS011;63741;42.624;26.276;2023-02-28T15:14:32;85.05;;;30.02;;
74957;SDS011;63741;42.624;26.276;2023-02-28T15:17:09;46.17;;;16.67;;
74957;SDS011;63741;42.624;26.276;2023-02-28T15:19:47;29.85;;;12.75;;
74957;SDS011;63741;42.624;26.276;2023-02-28T15:22:19;47.53;;;18.23;;
74957;SDS011;63741;42.624;26.276;2023-02-28T15:24:55;43.08;;;15.68;;
74957;SDS011;63741;42.624;26.276;2023-02-28T15:27:29;94.00;;;30.02;;
74957;SDS011;63741;42.624;26.276;2023-02-28T15:30:00;87.28;;;30.23;;
74957;SDS011;63741;42.624;26.276;2023-02-28T15:32:35;17.48;;;7.55;;
74957;SDS011;63741;42.624;26.276;2023-02-28T15:35:27;18.35;;;9.10;;
74957;SDS011;63741;42.624;26.276;2023-02-28T15:38:11;18.55;;;8.38;;
74957;SDS011;63741;42.624;26.276;2023-02-28T15:40:44;17.33;;;8.52;;
74957;SDS011;63741;42.624;26.276;2023-02-28T15:48:37;28.85;;;10.70;;
74957;SDS011;63741;42.624;26.276;2023-02-28T15:51:29;18.90;;;8.05;;
74957;SDS011;63741;42.624;26.276;2023-02-28T15:54:04;28.08;;;10.43;;
74957;SDS011;63741;42.624;26.276;2023-02-28T15:56:42;29.67;;;10.65;;
74957;SDS011;63741;42.624;26.276;2023-02-28T15:59:19;29.70;;;11.48;;
74957;SDS011;63741;42.624;26.276;2023-02-28T16:02:14;53.95;;;15.82;;
74957;SDS011;63741;42.624;26.276;2023-02-28T16:04:54;37.10;;;13.48;;
74957;SDS011;63741;42.624;26.276;2023-02-28T16:07:37;34.40;;;13.93;;
74957;SDS011;63741;42.624;26.276;2023-02-28T16:10:06;35.85;;;13.45;;
74957;SDS011;63741;42.624;26.276;2023-02-28T16:12:35;35.97;;;14.85;;
74957;SDS011;63741;42.624;26.276;2023-02-28T16:15:15;35.05;;;14.60;;
74957;SDS011;63741;42.624;26.276;2023-02-28T16:17:48;33.15;;;12.18;;
74957;SDS011;63741;42.624;26.276;2023-02-28T16:20:16;34.47;;;12.48;;
74957;SDS011;63741;42.624;26.276;2023-02-28T16:22:45;27.25;;;12.07;;
74957;SDS011;63741;42.624;26.276;2023-02-28T16:25:13;26.20;;;10.80;;
74957;SDS011;63741;42.624;26.276;2023-02-28T16:27:42;27.15;;;11.02;;
74957;SDS011;63741;42.624;26.276;2023-02-28T16:30:22;28.15;;;11.40;;
74957;SDS011;63741;42.624;26.276;2023-02-28T16:32:51;25.15;;;10.35;;
74957;SDS011;63741;42.624;26.276;2023-02-28T16:35:20;18.05;;;7.70;;
74957;SDS011;63741;42.624;26.276;2023-02-28T16:37:47;19.80;;;8.70;;
74957;SDS011;63741;42.624;26.276;2023-02-28T16:40:19;18.73;;;7.53;;
74957;SDS011;63741;42.624;26.276;2023-02-28T16:42:50;14.90;;;7.32;;
74957;SDS011;63741;42.624;26.276;2023-02-28T16:45:27;16.27;;;7.32;;
74957;SDS011;63741;42.624;26.276;2023-02-28T16:47:55;18.80;;;9.63;;
74957;SDS011;63741;42.624;26.276;2023-02-28T16:50:24;16.02;;;7.50;;
74957;SDS011;63741;42.624;26.276;2023-02-28T16:52:53;10.30;;;5.60;;
74957;SDS011;63741;42.624;26.276;2023-02-28T16:55:21;10.90;;;5.60;;
74957;SDS011;63741;42.624;26.276;2023-02-28T16:57:53;16.92;;;8.13;;
74957;SDS011;63741;42.624;26.276;2023-02-28T17:02:55;11.38;;;6.53;;
74957;SDS011;63741;42.624;26.276;2023-02-28T17:05:22;12.52;;;6.78;;
74957;SDS011;63741;42.624;26.276;2023-02-28T17:07:50;10.85;;;6.00;;
74957;SDS011;63741;42.624;26.276;2023-02-28T17:10:19;11.95;;;6.18;;
74957;SDS011;63741;42.624;26.276;2023-02-28T17:12:48;11.25;;;6.75;;
74957;SDS011;63741;42.624;26.276;2023-02-28T17:15:16;12.63;;;6.10;;
74957;SDS011;63741;42.624;26.276;2023-02-28T17:17:45;11.98;;;6.72;;
74957;SDS011;63741;42.624;26.276;2023-02-28T17:22:40;12.07;;;7.38;;
74957;SDS011;63741;42.624;26.276;2023-02-28T17:25:08;11.32;;;5.65;;
74957;SDS011;63741;42.624;26.276;2023-02-28T17:27:36;11.73;;;6.43;;